This is the latest recevied weather packets stored in our database for station/object N6AMQ-1. If no packets are shown the sender has not sent any weather packets the latest 10 day(s).
| Time | Temp. | Humidity | Pressure | Rain* | Wind** | Luminosity | Snow |
|---|---|---|---|---|---|---|---|
| 1788375302 | 22.78° C | 63% | 1017.9 hPa | 0 mm | - | - | - |
| 1788375241 | 22.78° C | 63% | 1017.9 hPa | 0 mm | - | - | - |
| 1788374941 | 22.78° C | 63% | 1017.9 hPa | 0 mm | - | - | - |
| 1788374641 | 22.78° C | 64% | 1017.9 hPa | 0 mm | - | - | - |
| 1788374102 | 22.78° C | 64% | 1017.9 hPa | 0 mm | - | - | - |
| 1788374057 | 22.78° C | 63% | 1017.9 hPa | 0 mm | - | - | - |
| 1788372902 | 22.22° C | 66% | 1017.9 hPa | 0 mm | - | - | - |
| 1788372841 | 22.22° C | 66% | 1017.9 hPa | 0 mm | - | - | - |
| 1788371703 | 21.67° C | 68% | 1017.9 hPa | 0 mm | - | - | - |
| 1788371641 | 21.67° C | 68% | 1017.9 hPa | 0 mm | - | - | - |
| 1788370741 | 21.11° C | 71% | 1017.9 hPa | 0 mm | - | - | - |
| 1788370503 | 21.11° C | 72% | 1017.9 hPa | 0 mm | - | - | - |
| 1788369841 | 20.56° C | 73% | 1017.9 hPa | 0 mm | - | - | - |
| 1788369303 | 20.56° C | 73% | 1017.9 hPa | 0 mm | - | - | - |
| 1788368341 | 20° C | 74% | 1017.9 hPa | 0 mm | - | - | - |
| 1788368103 | 19.44° C | 74% | 1017.9 hPa | 0 mm | - | - | - |
| 1788368041 | 19.44° C | 75% | 1017.9 hPa | 0 mm | - | - | - |
| 1788367441 | 19.44° C | 76% | 1016.9 hPa | 0 mm | - | - | - |
| 1788366903 | 18.33° C | 78% | 1016.9 hPa | 0 mm | - | - | - |
| 1788366841 | 18.33° C | 78% | 1016.9 hPa | 0 mm | - | - | - |
| 1788365703 | 17.22° C | 82% | 1017.9 hPa | 0 mm | - | - | - |
| 1788364503 | 16.11° C | 82% | 1017.9 hPa | 0 mm | - | - | - |
| 1788364441 | 16.11° C | 82% | 1017.9 hPa | 0 mm | - | - | - |
| 1788363302 | 15.56° C | 81% | 1017.9 hPa | 0 mm | - | - | - |
| 1788362941 | 15.56° C | 82% | 1016.9 hPa | 0 mm | - | - | - |
* Rain latest hour (hover to see other rain measurements)
** Current wind speed in m/s (hover to see current wind gust speed)